createdAt,value
2022-08-26T00:01:55.662Z,100.00
2022-08-26T00:04:25.333Z,100.00
2022-08-26T00:06:53.920Z,100.00
2022-08-26T00:09:20.655Z,100.00
2022-08-26T00:11:47.492Z,100.00
2022-08-26T00:14:14.719Z,100.00
2022-08-26T00:16:47.952Z,100.00
2022-08-26T00:19:20.251Z,100.00
2022-08-26T00:21:48.620Z,100.00
2022-08-26T00:24:15.957Z,100.00
2022-08-26T00:26:42.488Z,100.00
2022-08-26T00:29:09.569Z,100.00
2022-08-26T00:31:37.484Z,100.00
2022-08-26T00:34:04.067Z,100.00
2022-08-26T00:36:32.431Z,100.00
2022-08-26T00:38:59.511Z,100.00
2022-08-26T00:41:26.539Z,100.00
2022-08-26T00:43:54.251Z,100.00
2022-08-26T00:46:25.323Z,100.00
2022-08-26T00:49:05.541Z,100.00
2022-08-26T00:51:47.314Z,100.00
2022-08-26T00:54:16.444Z,100.00
2022-08-26T00:56:52.918Z,100.00
2022-08-26T00:59:20.375Z,100.00
2022-08-26T01:01:47.111Z,100.00
2022-08-26T01:04:19.272Z,100.00
2022-08-26T01:06:48.578Z,100.00
2022-08-26T01:09:16.115Z,100.00
2022-08-26T01:11:42.814Z,100.00
2022-08-26T01:14:12.438Z,100.00
2022-08-26T01:16:39.611Z,100.00
2022-08-26T01:19:27.098Z,100.00
2022-08-26T01:22:02.453Z,100.00
2022-08-26T01:24:30.815Z,100.00
2022-08-26T01:27:05.132Z,100.00
2022-08-26T01:29:33.694Z,100.00
2022-08-26T01:32:00.687Z,100.00
2022-08-26T01:34:35.017Z,100.00
2022-08-26T01:37:05.431Z,100.00
2022-08-26T01:39:33.704Z,100.00
2022-08-26T01:42:03.135Z,100.00
2022-08-26T01:44:36.343Z,100.00
2022-08-26T01:47:05.136Z,100.00
2022-08-26T01:49:35.733Z,100.00
2022-08-26T01:52:04.836Z,100.00
2022-08-26T01:54:32.459Z,100.00
2022-08-26T01:57:00.357Z,100.00
2022-08-26T01:59:27.067Z,100.00
2022-08-26T02:01:53.844Z,100.00
2022-08-26T02:04:36.030Z,100.00
2022-08-26T02:07:06.481Z,100.00
2022-08-26T02:09:41.290Z,100.00
2022-08-26T02:12:09.370Z,100.00
2022-08-26T02:14:44.446Z,100.00
2022-08-26T02:17:11.883Z,100.00
2022-08-26T02:19:41.918Z,100.00
2022-08-26T02:22:14.989Z,100.00
2022-08-26T02:24:59.479Z,100.00
2022-08-26T02:27:31.997Z,100.00
2022-08-26T02:30:07.819Z,100.00
2022-08-26T02:32:34.376Z,100.00
2022-08-26T02:35:01.865Z,100.00
2022-08-26T02:37:31.231Z,100.00
2022-08-26T02:39:58.096Z,100.00
2022-08-26T02:42:24.741Z,100.00
2022-08-26T02:44:51.819Z,100.00
2022-08-26T02:47:18.387Z,100.00
2022-08-26T02:49:47.228Z,100.00
2022-08-26T02:52:14.831Z,100.00
2022-08-26T02:54:41.479Z,100.00
2022-08-26T02:57:08.135Z,100.00
2022-08-26T02:59:36.058Z,100.00
2022-08-26T03:02:03.235Z,100.00
2022-08-26T03:04:30.460Z,100.00
2022-08-26T03:07:00.019Z,100.00
2022-08-26T03:09:27.541Z,100.00
2022-08-26T03:11:55.522Z,100.00
2022-08-26T03:14:23.972Z,100.00
2022-08-26T03:16:54.470Z,100.00
2022-08-26T03:19:25.585Z,100.00
2022-08-26T03:21:53.734Z,100.00
2022-08-26T03:24:25.556Z,100.00
2022-08-26T03:26:52.875Z,100.00
2022-08-26T03:29:39.516Z,100.00
2022-08-26T03:32:06.270Z,100.00
2022-08-26T03:34:33.439Z,100.00
2022-08-26T03:37:00.310Z,100.00
2022-08-26T03:39:26.882Z,100.00
2022-08-26T03:41:54.258Z,100.00
2022-08-26T03:44:21.051Z,100.00
2022-08-26T03:46:47.641Z,100.00
2022-08-26T03:49:15.198Z,100.00
2022-08-26T03:51:42.145Z,100.00
2022-08-26T03:54:09.412Z,100.00
2022-08-26T03:56:37.186Z,100.00
2022-08-26T03:59:07.599Z,100.00
2022-08-26T04:01:34.995Z,100.00
2022-08-26T04:04:01.809Z,100.00
2022-08-26T04:06:33.448Z,100.00
2022-08-26T04:09:04.309Z,100.00
2022-08-26T04:11:34.034Z,100.00
2022-08-26T04:14:04.332Z,100.00
2022-08-26T04:16:31.446Z,100.00
2022-08-26T04:18:58.465Z,100.00
2022-08-26T04:21:25.880Z,100.00
2022-08-26T04:23:54.364Z,100.00
2022-08-26T04:26:22.551Z,100.00
2022-08-26T04:28:51.123Z,100.00
2022-08-26T04:31:18.909Z,100.00
2022-08-26T04:33:47.598Z,100.00
2022-08-26T04:36:17.459Z,100.00
2022-08-26T04:38:46.607Z,100.00
2022-08-26T04:41:15.082Z,100.00
2022-08-26T04:43:43.958Z,100.00
2022-08-26T04:46:12.818Z,100.00
2022-08-26T04:48:41.093Z,100.00
2022-08-26T04:51:09.701Z,100.00
2022-08-26T04:53:36.867Z,100.00
2022-08-26T04:56:04.409Z,100.00
2022-08-26T04:58:31.256Z,100.00
2022-08-26T05:00:58.501Z,100.00
2022-08-26T05:03:30.530Z,100.00
2022-08-26T05:05:58.907Z,100.00
2022-08-26T05:08:25.820Z,100.00
2022-08-26T05:10:56.263Z,100.00
2022-08-26T05:13:27.477Z,100.00
2022-08-26T05:15:54.720Z,100.00
2022-08-26T05:18:27.539Z,100.00
2022-08-26T05:20:55.040Z,100.00
2022-08-26T05:23:23.271Z,100.00
2022-08-26T05:25:54.639Z,100.00
2022-08-26T05:28:22.080Z,100.00
2022-08-26T05:30:50.190Z,100.00
2022-08-26T05:33:18.489Z,100.00
2022-08-26T05:35:45.860Z,100.00
2022-08-26T05:38:15.601Z,98.33
2022-08-26T05:40:44.785Z,96.39
2022-08-26T05:43:13.318Z,94.00
2022-08-26T05:45:45.844Z,93.27
2022-08-26T05:48:13.838Z,91.17
2022-08-26T05:50:43.852Z,89.68
2022-08-26T05:53:12.322Z,89.40
2022-08-26T05:55:44.395Z,91.72
2022-08-26T05:58:12.454Z,89.92
2022-08-26T06:00:40.567Z,86.74
2022-08-26T06:03:08.352Z,78.02
2022-08-26T06:05:41.946Z,74.04
2022-08-26T06:08:11.391Z,73.81
2022-08-26T06:10:55.585Z,72.67
2022-08-26T06:13:26.861Z,71.73
2022-08-26T06:15:54.617Z,67.64
2022-08-26T06:18:36.405Z,68.10
2022-08-26T06:21:31.452Z,70.52
2022-08-26T06:24:20.387Z,67.50
2022-08-26T06:27:01.474Z,72.01
2022-08-26T06:29:30.112Z,69.79
2022-08-26T06:31:57.973Z,71.73
2022-08-26T06:34:29.763Z,69.52
2022-08-26T06:36:59.757Z,70.49
2022-08-26T06:39:28.309Z,69.97
2022-08-26T06:41:57.641Z,70.15
2022-08-26T06:44:24.201Z,68.53
2022-08-26T06:46:51.376Z,68.14
2022-08-26T06:49:18.181Z,67.72
2022-08-26T06:51:52.705Z,69.87
2022-08-26T06:54:19.591Z,67.45
2022-08-26T06:56:46.407Z,64.32
2022-08-26T06:59:15.370Z,69.10
2022-08-26T07:01:44.826Z,70.99
2022-08-26T07:04:14.600Z,66.92
2022-08-26T07:06:47.068Z,62.94
2022-08-26T07:09:13.628Z,66.74
2022-08-26T07:11:41.746Z,67.81
2022-08-26T07:14:09.088Z,70.77
2022-08-26T07:16:35.965Z,70.23
2022-08-26T07:19:03.589Z,68.23
2022-08-26T07:21:40.372Z,64.71
2022-08-26T07:24:07.592Z,61.50
2022-08-26T07:26:34.529Z,58.50
2022-08-26T07:29:01.795Z,58.51
2022-08-26T07:31:39.273Z,58.37
2022-08-26T07:34:09.319Z,59.05
2022-08-26T07:36:36.631Z,55.46
2022-08-26T07:39:03.869Z,52.56
2022-08-26T07:43:56.821Z,50.26
2022-08-26T07:49:15.784Z,50.48
2022-08-26T07:51:42.393Z,53.49
2022-08-26T07:54:10.201Z,53.70
2022-08-26T07:56:39.486Z,52.57
2022-08-26T07:59:13.835Z,52.60
2022-08-26T08:01:45.173Z,51.78
2022-08-26T08:04:17.320Z,54.14
2022-08-26T08:06:45.048Z,54.54
2022-08-26T08:09:14.096Z,53.72
2022-08-26T08:11:43.535Z,56.35
2022-08-26T08:14:11.978Z,57.77
2022-08-26T08:16:41.519Z,54.85
2022-08-26T08:19:13.574Z,50.55
2022-08-26T08:21:41.909Z,53.35
2022-08-26T08:24:08.520Z,52.89
2022-08-26T08:26:35.501Z,53.75
2022-08-26T08:29:02.890Z,52.97
2022-08-26T08:31:56.069Z,50.04
2022-08-26T08:34:19.226Z,47.83
2022-08-26T08:36:48.123Z,48.26
2022-08-26T08:39:14.657Z,50.69
2022-08-26T08:42:07.449Z,49.29
2022-08-26T08:44:41.352Z,46.82
2022-08-26T08:47:33.995Z,47.61
2022-08-26T08:50:12.474Z,46.86
2022-08-26T08:52:43.036Z,47.43
2022-08-26T08:55:16.104Z,46.55
2022-08-26T08:58:02.571Z,45.03
2022-08-26T09:00:39.769Z,44.63
2022-08-26T09:03:31.738Z,45.92
2022-08-26T09:06:00.501Z,44.79
2022-08-26T09:08:35.238Z,42.84
2022-08-26T09:11:03.666Z,43.93
2022-08-26T09:13:31.702Z,44.68
2022-08-26T09:16:13.956Z,45.95
2022-08-26T09:18:47.711Z,44.45
2022-08-26T09:21:17.864Z,45.29
2022-08-26T09:23:49.175Z,44.48
2022-08-26T09:26:24.787Z,43.08
2022-08-26T09:28:57.467Z,44.67
2022-08-26T09:31:27.679Z,45.21
2022-08-26T09:34:17.866Z,44.26
2022-08-26T09:36:53.583Z,44.28
2022-08-26T09:39:37.801Z,42.55
2022-08-26T09:42:07.770Z,40.17
2022-08-26T09:44:52.128Z,41.61
2022-08-26T09:47:25.660Z,43.00
2022-08-26T09:50:09.920Z,43.72
2022-08-26T09:52:40.343Z,43.46
2022-08-26T09:55:22.006Z,42.18
2022-08-26T09:57:54.731Z,40.61
2022-08-26T10:00:44.035Z,40.11
2022-08-26T10:03:17.265Z,39.80
2022-08-26T10:05:58.437Z,39.88
2022-08-26T10:08:41.285Z,39.93
2022-08-26T10:11:24.503Z,40.13
2022-08-26T10:13:56.859Z,40.14
2022-08-26T10:16:30.284Z,37.25
2022-08-26T10:19:15.813Z,39.86
2022-08-26T10:22:06.014Z,39.15
2022-08-26T10:24:44.188Z,37.81
2022-08-26T10:27:36.442Z,39.76
2022-08-26T10:30:23.485Z,40.49
2022-08-26T10:33:26.309Z,40.54
2022-08-26T10:42:58.436Z,37.45
2022-08-26T10:45:31.907Z,37.58
2022-08-26T10:48:06.800Z,37.29
2022-08-26T10:50:38.129Z,37.27
2022-08-26T10:53:25.018Z,36.77
2022-08-26T10:56:15.901Z,36.23
2022-08-26T10:59:13.577Z,38.50
2022-08-26T11:01:52.581Z,36.91
2022-08-26T11:04:48.210Z,36.24
2022-08-26T11:07:35.314Z,34.73
2022-08-26T11:10:31.091Z,34.13
2022-08-26T11:13:03.550Z,35.86
2022-08-26T11:15:30.051Z,35.33
2022-08-26T11:18:03.314Z,35.05
2022-08-26T11:41:33.637Z,35.35
2022-08-26T11:44:02.007Z,33.89
2022-08-26T11:46:37.523Z,35.12
2022-08-26T11:49:07.321Z,34.25
2022-08-26T11:51:40.489Z,33.01
2022-08-26T11:54:14.797Z,32.67
2022-08-26T11:56:44.773Z,36.22
2022-08-26T11:59:15.553Z,36.22
2022-08-26T12:01:45.298Z,36.28
2022-08-26T12:04:28.730Z,37.81
2022-08-26T12:06:57.067Z,38.99
2022-08-26T12:09:27.156Z,36.91
2022-08-26T12:12:27.067Z,39.07
2022-08-26T12:15:14.155Z,40.20
2022-08-26T12:17:42.061Z,39.83
2022-08-26T12:20:30.372Z,39.95
2022-08-26T12:23:00.093Z,40.98
2022-08-26T12:25:28.088Z,39.76
2022-08-26T12:28:05.511Z,40.31
2022-08-26T12:30:32.096Z,39.69
2022-08-26T12:33:21.933Z,41.41
2022-08-26T12:35:51.474Z,41.25
2022-08-26T12:38:21.600Z,41.99
2022-08-26T12:40:50.373Z,43.47
2022-08-26T12:43:43.579Z,42.43
2022-08-26T12:46:13.749Z,39.07
2022-08-26T12:48:44.779Z,40.11
2022-08-26T12:51:25.677Z,40.92
2022-08-26T12:53:53.384Z,40.59
2022-08-26T12:56:29.932Z,41.03
2022-08-26T12:59:11.173Z,43.08
2022-08-26T13:01:43.240Z,41.56
2022-08-26T13:04:37.967Z,41.07
2022-08-26T13:07:22.386Z,40.33
2022-08-26T13:09:54.477Z,40.85
2022-08-26T13:12:27.592Z,40.58
2022-08-26T13:14:54.803Z,40.17
2022-08-26T13:17:21.533Z,40.43
2022-08-26T13:19:49.266Z,41.03
2022-08-26T13:22:22.542Z,41.57
2022-08-26T13:24:49.119Z,42.15
2022-08-26T13:27:16.224Z,40.61
2022-08-26T13:29:43.509Z,42.64
2022-08-26T13:32:10.903Z,44.01
2022-08-26T13:34:38.130Z,43.53
2022-08-26T13:37:05.250Z,42.99
2022-08-26T13:39:32.244Z,42.61
2022-08-26T13:41:58.906Z,43.17
2022-08-26T13:44:25.886Z,43.63
2022-08-26T13:46:52.588Z,43.98
2022-08-26T13:49:19.180Z,43.07
2022-08-26T13:51:45.754Z,45.43
2022-08-26T13:54:12.341Z,44.25
2022-08-26T13:56:39.205Z,43.68
2022-08-26T13:59:06.676Z,40.70
2022-08-26T14:01:34.718Z,40.79
2022-08-26T14:04:03.121Z,42.39
2022-08-26T14:06:30.416Z,43.56
2022-08-26T14:08:57.537Z,42.72
2022-08-26T14:11:25.110Z,42.78
2022-08-26T14:13:51.934Z,44.43
2022-08-26T14:16:25.667Z,42.15
2022-08-26T14:18:53.100Z,42.42
2022-08-26T14:21:19.835Z,43.32
2022-08-26T14:23:46.673Z,41.68
2022-08-26T14:26:23.098Z,43.07
2022-08-26T14:28:59.818Z,45.30
2022-08-26T14:31:29.360Z,44.13
2022-08-26T14:34:02.615Z,44.45
2022-08-26T14:36:29.490Z,44.76
2022-08-26T14:38:58.456Z,43.72
2022-08-26T14:41:25.543Z,45.18
2022-08-26T14:44:00.273Z,43.66
2022-08-26T14:46:30.334Z,44.02
2022-08-26T14:49:01.837Z,41.78
2022-08-26T14:51:29.778Z,42.19
2022-08-26T14:54:15.321Z,42.86
2022-08-26T14:56:48.637Z,44.42
2022-08-26T14:59:21.507Z,43.16
2022-08-26T15:01:49.639Z,43.59
2022-08-26T15:04:16.613Z,45.00
2022-08-26T15:09:37.621Z,46.49
2022-08-26T15:12:05.902Z,45.70
2022-08-26T15:14:33.361Z,45.71
2022-08-26T15:17:00.838Z,43.56
2022-08-26T15:19:27.713Z,44.28
2022-08-26T15:21:54.524Z,44.60
2022-08-26T15:24:23.203Z,44.72
2022-08-26T15:26:50.462Z,44.80
2022-08-26T15:29:17.510Z,45.43
2022-08-26T15:31:44.345Z,46.06
2022-08-26T15:34:16.412Z,46.16
2022-08-26T15:36:44.964Z,46.16
2022-08-26T15:39:12.245Z,45.98
2022-08-26T15:41:39.533Z,46.35
2022-08-26T15:44:07.854Z,45.16
2022-08-26T15:46:35.714Z,45.11
2022-08-26T15:49:04.294Z,45.90
2022-08-26T15:51:34.212Z,46.72
2022-08-26T15:54:02.936Z,47.23
2022-08-26T15:56:34.720Z,48.59
2022-08-26T15:59:02.491Z,48.45
2022-08-26T16:01:32.066Z,47.98
2022-08-26T16:03:59.796Z,48.15
2022-08-26T16:06:30.773Z,49.20
2022-08-26T16:08:58.060Z,49.68
2022-08-26T16:11:26.190Z,49.25
2022-08-26T16:13:52.783Z,49.48
2022-08-26T16:16:19.622Z,49.96
2022-08-26T16:18:48.519Z,50.36
2022-08-26T16:21:19.424Z,49.49
2022-08-26T16:23:46.368Z,50.50
2022-08-26T16:26:16.373Z,50.89
2022-08-26T16:28:43.800Z,50.97
2022-08-26T16:31:10.931Z,51.62
2022-08-26T16:33:37.966Z,52.17
2022-08-26T16:36:05.568Z,52.21
2022-08-26T16:38:32.402Z,53.22
2022-08-26T16:41:01.407Z,54.33
2022-08-26T16:43:28.736Z,54.09
2022-08-26T16:45:56.184Z,54.44
2022-08-26T16:48:23.662Z,55.16
2022-08-26T16:50:51.230Z,54.79
2022-08-26T16:53:19.129Z,54.77
2022-08-26T16:55:47.623Z,54.64
2022-08-26T16:58:15.094Z,55.26
2022-08-26T17:00:41.845Z,55.70
2022-08-26T17:03:08.797Z,55.87
2022-08-26T17:05:36.377Z,56.08
2022-08-26T17:08:04.193Z,56.26
2022-08-26T17:10:32.297Z,56.91
2022-08-26T17:12:59.185Z,57.70
2022-08-26T17:15:26.083Z,57.83
2022-08-26T17:17:53.932Z,58.11
2022-08-26T17:20:22.464Z,58.71
2022-08-26T17:22:51.063Z,58.94
2022-08-26T17:25:24.603Z,58.97
2022-08-26T17:27:51.480Z,59.71
2022-08-26T17:30:18.876Z,60.21
2022-08-26T17:32:46.307Z,60.31
2022-08-26T17:35:14.249Z,60.56
2022-08-26T17:37:41.690Z,60.17
2022-08-26T17:40:15.404Z,60.80
2022-08-26T17:42:42.511Z,62.23
2022-08-26T17:45:10.260Z,62.68
2022-08-26T17:47:37.474Z,63.33
2022-08-26T17:50:05.901Z,63.27
2022-08-26T17:52:32.820Z,63.88
2022-08-26T17:54:59.427Z,63.95
2022-08-26T17:57:26.126Z,63.73
2022-08-26T17:59:53.549Z,64.14
2022-08-26T18:02:21.157Z,64.69
2022-08-26T18:04:48.488Z,63.74
2022-08-26T18:07:16.187Z,63.48
2022-08-26T18:09:43.188Z,63.88
2022-08-26T18:12:09.937Z,63.83
2022-08-26T18:14:36.813Z,64.29
2022-08-26T18:17:04.346Z,64.75
2022-08-26T18:19:31.464Z,64.61
2022-08-26T18:21:58.400Z,64.79
2022-08-26T18:24:30.308Z,65.54
2022-08-26T18:26:57.032Z,66.05
2022-08-26T18:29:25.662Z,66.89
2022-08-26T18:31:52.484Z,67.43
2022-08-26T18:34:19.477Z,68.88
2022-08-26T18:36:46.771Z,69.03
2022-08-26T18:39:15.006Z,69.09
2022-08-26T18:41:49.017Z,69.52
2022-08-26T18:44:18.184Z,68.34
2022-08-26T18:46:46.433Z,68.63
2022-08-26T18:49:15.106Z,68.98
2022-08-26T18:51:42.868Z,69.66
2022-08-26T18:54:10.419Z,69.82
2022-08-26T18:56:39.276Z,69.75
2022-08-26T18:59:07.629Z,69.63
2022-08-26T19:01:35.288Z,69.50
2022-08-26T19:04:03.519Z,69.46
2022-08-26T19:06:32.884Z,69.79
2022-08-26T19:08:59.980Z,70.06
2022-08-26T19:11:31.566Z,70.21
2022-08-26T19:14:00.744Z,71.19
2022-08-26T19:16:28.237Z,72.01
2022-08-26T19:18:56.063Z,72.88
2022-08-26T19:21:23.490Z,73.28
2022-08-26T19:23:50.708Z,75.45
2022-08-26T19:26:17.642Z,75.58
2022-08-26T19:28:44.197Z,75.76
2022-08-26T19:31:12.060Z,77.41
2022-08-26T19:33:42.906Z,77.35
2022-08-26T19:36:15.019Z,80.26
2022-08-26T19:38:42.795Z,78.18
2022-08-26T19:41:13.814Z,78.84
2022-08-26T19:43:40.699Z,80.37
2022-08-26T19:46:16.165Z,81.52
2022-08-26T19:48:46.661Z,82.14
2022-08-26T19:51:27.126Z,82.85
2022-08-26T19:53:55.640Z,82.40
2022-08-26T19:56:23.066Z,82.94
2022-08-26T19:58:50.484Z,83.22
2022-08-26T20:01:18.173Z,85.37
2022-08-26T20:03:45.748Z,81.84
2022-08-26T20:06:14.417Z,84.16
2022-08-26T20:08:42.355Z,84.71
2022-08-26T20:11:14.538Z,87.48
2022-08-26T20:13:42.134Z,86.13
2022-08-26T20:16:10.435Z,86.63
2022-08-26T20:18:55.464Z,89.37
2022-08-26T20:21:28.482Z,90.36
2022-08-26T20:24:01.169Z,91.95
2022-08-26T20:26:29.507Z,92.58
2022-08-26T20:28:57.916Z,89.46
2022-08-26T20:31:25.904Z,87.96
2022-08-26T20:33:53.625Z,86.19
2022-08-26T20:36:22.704Z,86.36
2022-08-26T20:38:50.215Z,86.87
2022-08-26T20:41:17.380Z,92.37
2022-08-26T20:43:45.289Z,90.54
2022-08-26T20:46:18.128Z,90.83
2022-08-26T20:48:46.648Z,89.14
2022-08-26T20:51:15.749Z,90.14
2022-08-26T20:53:42.637Z,89.94
2022-08-26T20:56:10.818Z,97.35
2022-08-26T20:58:38.183Z,100.00
2022-08-26T21:01:07.968Z,100.00
2022-08-26T21:03:36.173Z,98.55
2022-08-26T21:06:03.873Z,99.09
2022-08-26T21:08:33.198Z,98.78
2022-08-26T21:11:00.800Z,100.00
2022-08-26T21:13:35.784Z,100.00
2022-08-26T21:16:10.188Z,100.00
2022-08-26T21:18:37.089Z,100.00
2022-08-26T21:21:08.384Z,100.00
2022-08-26T21:23:36.215Z,100.00
2022-08-26T21:26:08.666Z,100.00
2022-08-26T21:28:36.783Z,100.00
2022-08-26T21:31:05.259Z,100.00
2022-08-26T21:33:32.348Z,100.00
2022-08-26T21:35:59.694Z,100.00
2022-08-26T21:38:26.689Z,100.00
2022-08-26T21:40:59.560Z,100.00
2022-08-26T21:43:35.062Z,100.00
2022-08-26T21:46:07.968Z,100.00
2022-08-26T21:48:35.964Z,100.00
2022-08-26T21:51:04.969Z,100.00
2022-08-26T21:53:31.944Z,100.00
2022-08-26T21:55:58.699Z,100.00
2022-08-26T21:58:25.332Z,100.00
2022-08-26T22:00:52.039Z,100.00
2022-08-26T22:03:18.888Z,100.00
2022-08-26T22:05:51.397Z,100.00
2022-08-26T22:08:23.036Z,100.00
2022-08-26T22:10:55.148Z,100.00
2022-08-26T22:13:29.685Z,100.00
2022-08-26T22:15:57.962Z,100.00
2022-08-26T22:18:26.848Z,100.00
2022-08-26T22:20:55.582Z,100.00
2022-08-26T22:23:22.996Z,100.00
2022-08-26T22:25:50.655Z,100.00
2022-08-26T22:28:18.076Z,100.00
2022-08-26T22:30:46.650Z,100.00
2022-08-26T22:33:14.248Z,100.00
2022-08-26T22:35:44.988Z,100.00
2022-08-26T22:38:11.959Z,100.00
2022-08-26T22:40:44.575Z,100.00
2022-08-26T22:43:12.918Z,100.00
2022-08-26T22:45:45.774Z,100.00
2022-08-26T22:48:15.632Z,100.00
2022-08-26T22:50:44.226Z,100.00
2022-08-26T22:53:10.891Z,100.00
2022-08-26T22:55:38.054Z,100.00
2022-08-26T22:58:06.041Z,100.00
2022-08-26T23:00:33.236Z,100.00
2022-08-26T23:03:01.008Z,100.00
2022-08-26T23:05:27.738Z,100.00
2022-08-26T23:07:56.299Z,100.00
2022-08-26T23:10:26.527Z,100.00
2022-08-26T23:12:53.707Z,100.00
2022-08-26T23:15:21.314Z,100.00
2022-08-26T23:17:57.043Z,100.00
2022-08-26T23:20:28.153Z,100.00
2022-08-26T23:22:55.545Z,100.00
2022-08-26T23:25:23.282Z,100.00
2022-08-26T23:27:52.057Z,100.00
2022-08-26T23:30:22.520Z,100.00
2022-08-26T23:32:50.100Z,100.00
2022-08-26T23:35:19.916Z,100.00
2022-08-26T23:37:48.958Z,100.00
2022-08-26T23:40:20.924Z,100.00
2022-08-26T23:42:47.941Z,100.00
2022-08-26T23:45:18.402Z,100.00
2022-08-26T23:47:45.655Z,100.00
2022-08-26T23:50:13.146Z,100.00
2022-08-26T23:52:58.323Z,100.00
2022-08-26T23:55:25.368Z,100.00
2022-08-26T23:57:52.169Z,100.00
